Главная страница
METAR-TAF:

METAR-TAF

Аэропорты :

Каструп

Копенгаген, Дания

широта: 55-37N, долгота: 012-39E, высота над уровнем моря: 5 м

Текущие метеонаблюдения

Эта сводка был подготовлена 17 минут назад, в 06:20 UTC
Ветер 8 Узел от западный
Температура 18°C
Влажность 73%
Давление 1021 hPa
Видимость 10 км и более

METAR: EKCH 170620Z AUTO 27008KT 9999 NCD 18/13 Q1021 NOSIG

Время: 08:37 (06:37 UTC)

Прогноз

Эта сводка был подготовлена 1 час и 32 минут назад, в 05:05 UTC
Прогноз действительный с 17-го 06 UTC до 18-го 06 UTC
Ветер 5 Узел от западный
Видимость 10 км и более
Отдельные облака на высоте 3000 фута
изменения
С 17-го 09 UTC до 17-го 12 UTC
Ветер 10 Узел от южный

TAF: EKCH 170505Z 1706/1806 28005KT 9999 SCT030 BECMG 1709/1712 18010KT

Метеонаблюдения и прогнозы для более 4000 аэропортов (сводки METAR и TAF).

Имеющиеся станции представлены на карте желтыми и красными точками.

Чтобы увидеть название станции, наведите на нее мышь.

Затем щелкните, чтобы увидеть метеонаблюдения и метеопрогнозы.

Управление картой: чтобы увеличить масштаб, щелкните зеленые кнопки с черным крестиком; чтобы уменьшить масштаб, щелкните зеленую кнопку с тире; для просмотра соседних карт щелкайте зеленые стрелки.


METAR-TAF: